createdAt,value
2023-08-26T00:02:20.275Z,99819.75
2023-08-26T00:05:27.508Z,99837.88
2023-08-26T00:08:29.393Z,99845.41
2023-08-26T00:11:31.064Z,99863.47
2023-08-26T00:14:32.744Z,99871.19
2023-08-26T00:17:34.708Z,99868.28
2023-08-26T00:20:40.883Z,99886.59
2023-08-26T00:23:48.725Z,99902.22
2023-08-26T00:26:50.290Z,99918.22
2023-08-26T00:29:52.007Z,99924.25
2023-08-26T00:32:53.644Z,99932.16
2023-08-26T00:35:59.894Z,99934.84
2023-08-26T00:39:02.171Z,99946.91
2023-08-26T00:42:04.267Z,99965.38
2023-08-26T00:45:06.872Z,99990.97
2023-08-26T00:48:09.627Z,99999.06
2023-08-26T00:51:12.848Z,100018.06
2023-08-26T00:54:17.937Z,100035.97
2023-08-26T00:57:19.580Z,100074.13
2023-08-26T01:00:24.535Z,100087.06
2023-08-26T01:03:26.652Z,100124.78
2023-08-26T01:06:33.602Z,100134.13
2023-08-26T01:09:35.978Z,100141.13
2023-08-26T01:12:43.970Z,100157.38
2023-08-26T01:15:49.368Z,100170.50
2023-08-26T01:18:51.885Z,100176.75
2023-08-26T01:22:01.697Z,100200.97
2023-08-26T01:25:08.971Z,100223.88
2023-08-26T01:28:10.572Z,100233.69
2023-08-26T01:31:14.121Z,100248.47
2023-08-26T01:34:18.952Z,100252.19
2023-08-26T01:37:21.182Z,100264.91
2023-08-26T01:40:25.791Z,100285.16
2023-08-26T01:43:27.418Z,100293.94
2023-08-26T01:46:35.972Z,100311.38
2023-08-26T01:49:37.652Z,100326.03
2023-08-26T01:52:39.256Z,100319.50
2023-08-26T01:55:42.486Z,100313.84
2023-08-26T01:58:44.111Z,100315.47
2023-08-26T02:01:45.834Z,100321.81
2023-08-26T02:04:47.538Z,100329.22
2023-08-26T02:07:49.209Z,100342.34
2023-08-26T02:10:55.665Z,100353.53
2023-08-26T02:13:57.281Z,100360.16
2023-08-26T02:16:59.161Z,100376.00
2023-08-26T02:20:00.756Z,100391.47
2023-08-26T02:23:09.202Z,100400.22
2023-08-26T02:26:12.623Z,100396.06
2023-08-26T02:29:14.256Z,100400.69
2023-08-26T02:32:15.822Z,100403.13
2023-08-26T02:35:17.853Z,100418.25
2023-08-26T02:38:19.413Z,100434.69
2023-08-26T02:41:22.362Z,100453.69
2023-08-26T02:44:24.872Z,100480.91
2023-08-26T02:47:26.501Z,100494.25
2023-08-26T02:50:28.094Z,100503.06
2023-08-26T02:53:30.654Z,100500.31
2023-08-26T02:56:33.914Z,100505.78
2023-08-26T02:59:35.539Z,100515.41
2023-08-26T03:02:37.295Z,100506.03
2023-08-26T03:05:38.915Z,100475.84
2023-08-26T03:08:40.622Z,100489.25
2023-08-26T03:11:43.759Z,100495.06
2023-08-26T03:14:45.420Z,100489.19
2023-08-26T03:17:47.103Z,100486.63
2023-08-26T03:20:48.731Z,100482.59
2023-08-26T03:23:50.332Z,100479.75
2023-08-26T03:26:53.431Z,100479.47
2023-08-26T03:29:55.502Z,100478.66
2023-08-26T03:32:57.155Z,100488.53
2023-08-26T03:35:58.798Z,100508.22
2023-08-26T03:39:08.517Z,100532.13
2023-08-26T03:42:11.672Z,100542.38
2023-08-26T03:45:13.385Z,100530.94
2023-08-26T03:48:14.989Z,100530.56
2023-08-26T03:51:16.600Z,100527.00
2023-08-26T03:54:21.856Z,100523.78
2023-08-26T03:57:25.640Z,100523.66
2023-08-26T04:00:27.430Z,100507.38
2023-08-26T04:03:29.296Z,100490.19
2023-08-26T04:06:30.990Z,100481.09
2023-08-26T04:09:40.067Z,100472.00
2023-08-26T04:12:43.827Z,100458.41
2023-08-26T04:15:45.532Z,100446.84
2023-08-26T04:18:47.186Z,100433.72
2023-08-26T04:21:48.742Z,100438.84
2023-08-26T04:24:54.948Z,100430.91
2023-08-26T04:28:01.104Z,100445.38
2023-08-26T04:31:02.780Z,100439.22
2023-08-26T04:34:04.548Z,100445.53
2023-08-26T04:37:07.427Z,100444.44
2023-08-26T04:40:10.361Z,100448.41
2023-08-26T04:43:13.585Z,100468.84
2023-08-26T04:46:15.185Z,100474.59
2023-08-26T04:49:17.564Z,100495.31
2023-08-26T04:52:19.491Z,100507.06
2023-08-26T04:55:24.032Z,100532.81
2023-08-26T04:58:33.158Z,100535.19
2023-08-26T05:01:34.882Z,100536.88
2023-08-26T05:04:37.698Z,100547.34
2023-08-26T05:07:39.270Z,100561.56
2023-08-26T05:10:41.619Z,100557.19
2023-08-26T05:13:44.717Z,100544.00
2023-08-26T05:16:46.442Z,100542.38
2023-08-26T05:19:48.123Z,100534.53
2023-08-26T05:22:49.722Z,100547.34
2023-08-26T05:25:51.400Z,100553.78
2023-08-26T05:28:54.507Z,100547.25
2023-08-26T05:31:58.088Z,100552.84
2023-08-26T05:34:59.913Z,100542.97
2023-08-26T05:38:02.085Z,100538.00
2023-08-26T05:41:04.375Z,100528.97
2023-08-26T05:44:11.150Z,100513.47
2023-08-26T05:47:14.481Z,100491.63
2023-08-26T05:50:16.316Z,100479.00
2023-08-26T05:53:17.994Z,100450.50
2023-08-26T05:56:24.781Z,100428.22
2023-08-26T05:59:27.700Z,100384.94
2023-08-26T06:02:30.455Z,100371.00
2023-08-26T06:05:38.907Z,100339.38
2023-08-26T06:08:40.792Z,100332.75
2023-08-26T06:11:45.617Z,100325.78
2023-08-26T06:14:49.198Z,100279.06
2023-08-26T06:17:51.101Z,100249.97
2023-08-26T06:20:56.497Z,100162.34
2023-08-26T06:23:58.324Z,100090.09
2023-08-26T06:26:59.900Z,100016.06
2023-08-26T06:30:03.165Z,99920.00
2023-08-26T06:33:08.192Z,99834.63
2023-08-26T06:36:10.477Z,99740.19
2023-08-26T06:39:12.273Z,99664.16
2023-08-26T06:42:19.952Z,99565.19
2023-08-26T06:45:30.815Z,99490.34
2023-08-26T06:48:34.744Z,99412.94
2023-08-26T06:51:36.358Z,99327.19
2023-08-26T06:54:39.720Z,99257.41
2023-08-26T06:57:41.361Z,99181.84
2023-08-26T07:00:44.742Z,99125.50
2023-08-26T07:03:49.331Z,99062.22
2023-08-26T07:06:53.779Z,98994.66
2023-08-26T07:09:56.022Z,98929.75
2023-08-26T07:12:57.571Z,98894.94
2023-08-26T07:16:00.874Z,98839.50
2023-08-26T07:19:02.609Z,98788.84
2023-08-26T07:22:04.315Z,98743.59
2023-08-26T07:25:06.226Z,98727.50
2023-08-26T07:28:07.826Z,98687.19
2023-08-26T07:31:10.818Z,98662.38
2023-08-26T07:34:12.750Z,98635.69
2023-08-26T07:37:14.361Z,98629.22
2023-08-26T07:40:18.554Z,98611.38
2023-08-26T07:43:20.580Z,98597.50
2023-08-26T07:49:28.240Z,98571.63
2023-08-26T07:52:30.624Z,98562.13
2023-08-26T07:55:32.350Z,98549.16
2023-08-26T07:58:33.927Z,98547.28
2023-08-26T08:01:36.857Z,98522.59
2023-08-26T08:04:38.445Z,98539.13
2023-08-26T08:07:40.043Z,98512.06
2023-08-26T08:10:44.261Z,98463.94
2023-08-26T08:13:46.940Z,98466.78
2023-08-26T08:16:49.992Z,98467.91
2023-08-26T08:19:51.972Z,98460.63
2023-08-26T08:22:53.584Z,98404.91
2023-08-26T08:25:55.116Z,98372.47
2023-08-26T08:29:03.027Z,98349.50
2023-08-26T08:32:06.148Z,98399.13
2023-08-26T08:35:08.336Z,98368.91
2023-08-26T08:38:11.448Z,98373.56
2023-08-26T08:41:15.109Z,98346.69
2023-08-26T08:44:17.732Z,98343.63
2023-08-26T08:47:21.423Z,98294.56
2023-08-26T08:50:23.943Z,98285.56
2023-08-26T08:53:30.349Z,98268.50
2023-08-26T08:56:32.514Z,98272.94
2023-08-26T08:59:36.387Z,98235.84
2023-08-26T09:02:40.816Z,98176.50
2023-08-26T09:05:42.982Z,98168.84
2023-08-26T09:08:45.513Z,98235.41
2023-08-26T09:11:47.842Z,98190.88
2023-08-26T09:14:49.411Z,98183.00
2023-08-26T09:17:57.498Z,98147.19
2023-08-26T09:20:59.353Z,98176.88
2023-08-26T09:24:01.406Z,98138.19
2023-08-26T09:27:03.358Z,98104.16
2023-08-26T09:30:06.110Z,98105.41
2023-08-26T09:33:14.621Z,98028.38
2023-08-26T09:39:20.857Z,98080.59
2023-08-26T09:42:22.551Z,98199.25
2023-08-26T09:45:24.483Z,98209.56
2023-08-26T09:48:31.697Z,98175.16
2023-08-26T09:51:33.629Z,98032.69
2023-08-26T09:54:36.165Z,98134.72
2023-08-26T09:57:38.100Z,98334.41
2023-08-26T10:00:39.703Z,98346.78
2023-08-26T10:03:45.577Z,98259.88
2023-08-26T10:06:51.691Z,98177.41
2023-08-26T10:09:58.638Z,98193.28
2023-08-26T10:13:02.782Z,98410.59
2023-08-26T10:16:06.965Z,98273.72
2023-08-26T10:19:10.022Z,98183.81
2023-08-26T10:22:11.618Z,98155.69
2023-08-26T10:25:13.214Z,98130.91
2023-08-26T10:28:14.755Z,98022.13
2023-08-26T10:31:16.664Z,97927.41
2023-08-26T10:34:20.800Z,97730.00
2023-08-26T10:37:27.120Z,98089.50
2023-08-26T10:40:32.402Z,97984.25
2023-08-26T10:43:34.029Z,97879.38
2023-08-26T10:46:38.433Z,97854.06
2023-08-26T10:49:43.611Z,97862.53
2023-08-26T10:52:45.811Z,97864.38
2023-08-26T10:55:47.502Z,97892.69
2023-08-26T10:58:51.070Z,97951.91
2023-08-26T11:01:53.131Z,97879.91
2023-08-26T11:04:56.464Z,97837.78
2023-08-26T11:07:58.338Z,97863.59
2023-08-26T11:11:00.134Z,97886.34
2023-08-26T11:14:03.170Z,97801.75
2023-08-26T11:17:05.582Z,97779.22
2023-08-26T11:20:09.544Z,97652.09
2023-08-26T11:23:11.331Z,97661.25
2023-08-26T11:26:16.249Z,97620.69
2023-08-26T11:29:17.973Z,97721.91
2023-08-26T11:32:22.427Z,97596.81
2023-08-26T11:35:25.669Z,97631.84
2023-08-26T11:38:33.520Z,97558.69
2023-08-26T11:41:37.722Z,97728.81
2023-08-26T11:44:42.178Z,97712.09
2023-08-26T11:47:43.849Z,97670.13
2023-08-26T11:50:46.935Z,97676.16
2023-08-26T11:53:49.517Z,97591.41
2023-08-26T11:56:51.141Z,97859.28
2023-08-26T11:59:52.858Z,97812.03
2023-08-26T12:02:56.876Z,97735.78
2023-08-26T12:06:00.858Z,97934.75
2023-08-26T12:09:11.240Z,97836.69
2023-08-26T12:12:12.806Z,97752.31
2023-08-26T12:15:17.090Z,97623.41
2023-08-26T12:18:20.204Z,97604.59
2023-08-26T12:21:23.276Z,97707.81
2023-08-26T12:24:24.939Z,97623.50
2023-08-26T12:27:26.602Z,97494.56
2023-08-26T12:30:28.153Z,97526.69
2023-08-26T12:33:32.981Z,97720.69
2023-08-26T12:36:37.094Z,97741.25
2023-08-26T12:39:38.641Z,97518.53
2023-08-26T12:42:40.855Z,97730.19
2023-08-26T12:45:42.496Z,97878.31
2023-08-26T12:51:50.081Z,97743.63
2023-08-26T12:54:51.610Z,97748.59
2023-08-26T12:57:53.319Z,97766.63
2023-08-26T13:00:55.085Z,97632.91
2023-08-26T13:03:58.774Z,97778.16
2023-08-26T13:07:04.867Z,97888.94
2023-08-26T13:10:07.860Z,97859.72
2023-08-26T13:13:12.124Z,97783.44
2023-08-26T13:16:17.411Z,97897.66
2023-08-26T13:19:20.234Z,97675.47
2023-08-26T13:22:23.307Z,97755.84
2023-08-26T13:25:25.006Z,97831.47
2023-08-26T13:28:30.630Z,98017.91
2023-08-26T13:31:38.727Z,97852.09
2023-08-26T13:34:41.528Z,97921.94
2023-08-26T13:37:44.938Z,97795.59
2023-08-26T13:40:46.750Z,97716.00
2023-08-26T13:43:48.741Z,97922.75
2023-08-26T13:46:50.822Z,97928.00
2023-08-26T13:49:52.406Z,97985.09
2023-08-26T13:52:55.289Z,98041.88
2023-08-26T13:55:58.338Z,98025.31
2023-08-26T13:58:59.914Z,98066.53
2023-08-26T14:02:01.527Z,98193.88
2023-08-26T14:05:03.534Z,98105.78
2023-08-26T14:08:06.516Z,98077.50
2023-08-26T14:11:08.113Z,98204.28
2023-08-26T14:14:09.831Z,98152.31
2023-08-26T14:17:12.810Z,98058.75
2023-08-26T14:20:14.490Z,98185.94
2023-08-26T14:23:17.670Z,98243.28
2023-08-26T14:26:21.932Z,98292.41
2023-08-26T14:29:23.501Z,97988.34
2023-08-26T14:32:25.050Z,98169.09
2023-08-26T14:35:26.597Z,98161.25
2023-08-26T14:38:29.907Z,98198.16
2023-08-26T14:41:33.834Z,98269.41
2023-08-26T14:44:35.858Z,98166.94
2023-08-26T14:47:37.491Z,98188.69
2023-08-26T14:50:39.075Z,98200.94
2023-08-26T14:53:42.116Z,98093.00
2023-08-26T14:56:43.640Z,98110.09
2023-08-26T14:59:45.293Z,98137.47
2023-08-26T15:02:47.587Z,98226.31
2023-08-26T15:05:59.609Z,98183.06
2023-08-26T15:09:03.099Z,98300.19
2023-08-26T15:12:05.158Z,98230.22
2023-08-26T15:15:07.756Z,98156.84
2023-08-26T15:18:09.423Z,98164.22
2023-08-26T15:21:11.299Z,98188.38
2023-08-26T15:24:14.242Z,98161.50
2023-08-26T15:27:15.890Z,98137.56
2023-08-26T15:30:18.031Z,98172.91
2023-08-26T15:33:20.892Z,98075.06
2023-08-26T15:36:22.507Z,98099.25
2023-08-26T15:39:25.413Z,98025.31
2023-08-26T15:42:27.223Z,98081.03
2023-08-26T15:45:29.011Z,98090.81
2023-08-26T15:48:30.990Z,98102.41
2023-08-26T15:51:32.622Z,98095.28
2023-08-26T15:54:35.482Z,98110.09
2023-08-26T15:57:37.009Z,98222.91
2023-08-26T16:00:39.315Z,98290.50
2023-08-26T16:03:41.076Z,98246.59
2023-08-26T16:06:42.657Z,98245.34
2023-08-26T16:09:45.664Z,98328.34
2023-08-26T16:12:47.221Z,98308.88
2023-08-26T16:15:49.245Z,98180.69
2023-08-26T16:18:52.171Z,98037.97
2023-08-26T16:21:53.902Z,98067.50
2023-08-26T16:24:57.542Z,98139.75
2023-08-26T16:27:59.237Z,98127.28
2023-08-26T16:31:04.363Z,98186.50
2023-08-26T16:34:06.008Z,98178.72
2023-08-26T16:37:07.690Z,98101.53
2023-08-26T16:40:11.675Z,98082.09
2023-08-26T16:43:13.566Z,98197.97
2023-08-26T16:46:17.102Z,98300.91
2023-08-26T16:49:18.614Z,98319.63
2023-08-26T16:52:24.132Z,98350.44
2023-08-26T16:55:29.236Z,98277.47
2023-08-26T16:58:30.763Z,98102.19
2023-08-26T17:01:32.493Z,97826.13
2023-08-26T17:04:34.050Z,98070.38
2023-08-26T17:07:42.203Z,98197.84
2023-08-26T17:10:45.097Z,98243.84
2023-08-26T17:13:47.111Z,98346.34
2023-08-26T17:16:48.708Z,98385.66
2023-08-26T17:19:51.600Z,98441.00
2023-08-26T17:22:53.162Z,98442.25
2023-08-26T17:25:56.182Z,98441.34
2023-08-26T17:28:57.786Z,98497.59
2023-08-26T17:31:59.350Z,98577.69
2023-08-26T17:35:00.963Z,98655.50
2023-08-26T17:38:09.313Z,98646.72
2023-08-26T17:41:12.220Z,98675.09
2023-08-26T17:44:16.396Z,98699.09
2023-08-26T17:47:17.900Z,98702.75
2023-08-26T17:50:19.473Z,98723.16
2023-08-26T17:53:21.506Z,98740.97
2023-08-26T17:56:24.404Z,98759.72
2023-08-26T17:59:25.943Z,98742.19
2023-08-26T18:02:28.313Z,98740.25
2023-08-26T18:05:30.415Z,98800.34
2023-08-26T18:08:32.711Z,98806.63
2023-08-26T18:11:35.599Z,98835.66
2023-08-26T18:14:37.227Z,98835.63
2023-08-26T18:17:38.849Z,98841.41
2023-08-26T18:20:41.039Z,98856.34
2023-08-26T18:23:42.992Z,98876.16
2023-08-26T18:26:47.362Z,98859.19
2023-08-26T18:29:48.913Z,98877.09
2023-08-26T18:32:52.538Z,98908.41
2023-08-26T18:35:55.653Z,98904.38
2023-08-26T18:38:57.401Z,98923.66
2023-08-26T18:42:00.335Z,98926.81
2023-08-26T18:45:03.098Z,98923.69
2023-08-26T18:48:05.417Z,98916.63
2023-08-26T18:51:07.529Z,98917.06
2023-08-26T18:54:13.543Z,98927.81
2023-08-26T18:57:16.534Z,98932.94
2023-08-26T19:00:18.708Z,98935.31
2023-08-26T19:03:20.342Z,98955.84
2023-08-26T19:06:21.908Z,98973.03
2023-08-26T19:09:23.805Z,98964.34
2023-08-26T19:12:26.794Z,98966.19
2023-08-26T19:15:29.956Z,98957.09
2023-08-26T19:18:31.985Z,98969.09
2023-08-26T19:21:33.892Z,98960.00
2023-08-26T19:24:40.082Z,98957.50
2023-08-26T19:27:47.133Z,98962.47
2023-08-26T19:30:49.200Z,98952.75
2023-08-26T19:33:50.821Z,98956.47
2023-08-26T19:36:52.451Z,98956.47
2023-08-26T19:39:54.081Z,98945.09
2023-08-26T19:42:57.517Z,98956.25
2023-08-26T19:45:59.305Z,98959.16
2023-08-26T19:49:00.955Z,98943.25
2023-08-26T19:52:03.814Z,98935.78
2023-08-26T19:55:05.818Z,98940.53
2023-08-26T19:58:08.716Z,98945.06
2023-08-26T20:01:13.954Z,98945.25
2023-08-26T20:04:15.520Z,98953.72
2023-08-26T20:07:17.196Z,98952.13
2023-08-26T20:10:19.461Z,98957.66
2023-08-26T20:13:28.541Z,98950.38
2023-08-26T20:16:30.109Z,98960.06
2023-08-26T20:19:44.081Z,98976.53
2023-08-26T20:22:46.172Z,98975.34
2023-08-26T20:25:50.823Z,98979.97
2023-08-26T20:28:57.081Z,98981.75
2023-08-26T20:31:59.994Z,98982.56
2023-08-26T20:35:01.770Z,98990.03
2023-08-26T20:38:03.414Z,99000.63
2023-08-26T20:41:13.071Z,99018.41
2023-08-26T20:44:15.942Z,99019.19
2023-08-26T20:47:17.506Z,99013.59
2023-08-26T20:50:21.949Z,99032.03
2023-08-26T20:53:23.635Z,99033.75
2023-08-26T20:56:25.324Z,99041.84
2023-08-26T20:59:28.164Z,99037.91
2023-08-26T21:02:29.760Z,99043.97
2023-08-26T21:05:32.585Z,99061.72
2023-08-26T21:08:34.202Z,99057.94
2023-08-26T21:11:38.190Z,99062.13
2023-08-26T21:14:41.477Z,99064.56
2023-08-26T21:17:43.187Z,99077.19
2023-08-26T21:20:44.864Z,99071.22
2023-08-26T21:23:48.813Z,99076.38
2023-08-26T21:26:55.520Z,99075.16
2023-08-26T21:30:01.760Z,99078.69
2023-08-26T21:33:03.600Z,99085.59
2023-08-26T21:36:06.095Z,99101.56
2023-08-26T21:39:07.811Z,99096.00
2023-08-26T21:42:09.613Z,99101.53
2023-08-26T21:45:12.550Z,99121.28
2023-08-26T21:48:14.162Z,99131.53
2023-08-26T21:51:16.996Z,99128.72
2023-08-26T21:54:18.529Z,99136.50
2023-08-26T21:57:20.218Z,99150.47
2023-08-26T22:00:24.291Z,99155.81
2023-08-26T22:03:25.877Z,99171.16
2023-08-26T22:06:27.532Z,99170.44
2023-08-26T22:09:29.504Z,99176.44
2023-08-26T22:12:31.098Z,99172.19
2023-08-26T22:15:34.012Z,99173.75
2023-08-26T22:18:35.549Z,99170.38
2023-08-26T22:21:36.977Z,99170.94
2023-08-26T22:24:38.473Z,99207.72
2023-08-26T22:27:40.129Z,99230.78
2023-08-26T22:30:43.225Z,99242.25
2023-08-26T22:33:44.934Z,99240.94
2023-08-26T22:36:52.706Z,99241.44
2023-08-26T22:39:54.080Z,99247.25
2023-08-26T22:42:59.536Z,99259.16
2023-08-26T22:46:06.493Z,99242.16
2023-08-26T22:49:08.101Z,99240.44
2023-08-26T22:52:09.520Z,99247.06
2023-08-26T22:55:11.076Z,99228.78
2023-08-26T22:58:12.642Z,99223.97
2023-08-26T23:01:15.513Z,99244.22
2023-08-26T23:04:17.425Z,99265.28
2023-08-26T23:07:18.810Z,99279.72
2023-08-26T23:10:20.366Z,99278.59
2023-08-26T23:13:21.745Z,99288.72
2023-08-26T23:16:28.608Z,99297.75
2023-08-26T23:19:30.176Z,99302.44
2023-08-26T23:22:31.580Z,99280.72
2023-08-26T23:25:33.133Z,99279.72
2023-08-26T23:28:34.526Z,99263.53
2023-08-26T23:31:40.475Z,99273.88
2023-08-26T23:34:42.128Z,99282.31
2023-08-26T23:37:43.716Z,99293.88
2023-08-26T23:40:45.118Z,99318.78
2023-08-26T23:43:50.201Z,99312.41
2023-08-26T23:46:57.375Z,99313.09
2023-08-26T23:49:58.909Z,99314.47
2023-08-26T23:53:00.624Z,99290.78
2023-08-26T23:56:02.287Z,99278.25
2023-08-26T23:59:03.889Z,99257.28
